Flight Briefing for CPX362

Departure Arrival
Portland International Airport (KPDX)
Click to view FAA NOTAMS
Seattle-Tacoma International Airport (KSEA)
Click to view FAA NOTAMS
Departure Time Arrival Time
N/A N/A
Aircraft Distance
B767-300BDSF 112nm
Departure METAR Arrival METAR
KPDX 152153Z 09009KT 10SM FEW025 SCT042 BKN200 07/04 A2968 RMK AO2 SLP049 T00720039 KSEA 152153Z 20011KT 10SM SCT020 BKN035 BKN120 BKN200 08/03 A2965 RMK AO2 SLP047 T00830028
Suggested Route
COUGA KRIEG HAWKZ7


View recent IFR Routes data
Notes



Charts and Procedures

Charts for KPDX
No chart available
Charts for KSEA
No chart available

Ventusky Weather